Time;durP1;ratioP1;P1;durP2;ratioP2;P2;SDS_P1;SDS_P2;PMS_P1;PMS_P2;Temp;Humidity;BMP_temperature;BMP_pressure;BME280_temperature;BME280_humidity;BME280_pressure;Samples;Min_cycle;Max_cycle;Signal;HPM_P1;HPM_P2
2022/12/02 00:02:29;;;;;;;32.10;21.80;;;;;;;-1.50;79.89;101795.84;99998;1297;93923;-55
2022/12/02 00:05:03;;;;;;;35.20;20.90;;;;;;;-1.52;79.72;101793.10;100031;1300;79952;-57
2022/12/02 00:10:34;;;;;;;34.40;21.60;;;;;;;-1.62;79.81;101796.83;96901;1335;599922;-55
2022/12/02 00:13:20;;;;;;;39.70;23.80;;;;;;;-1.70;79.74;101797.58;99281;1304;80545;-55
2022/12/02 00:15:53;;;;;;;41.10;23.40;;;;;;;-1.73;79.73;101794.33;99260;1304;85738;-55
2022/12/02 00:18:25;;;;;;;36.40;22.00;;;;;;;-1.71;79.95;101790.04;99257;1314;80956;-57
2022/12/02 00:20:54;;;;;;;33.20;21.10;;;;;;;-1.67;79.77;101792.27;99269;1304;96154;-57
2022/12/02 00:23:26;;;;;;;35.40;22.10;;;;;;;-1.62;79.88;101795.04;98995;1312;424224;-55
2022/12/02 00:25:56;;;;;;;35.30;23.20;;;;;;;-1.62;79.92;101794.31;99446;1310;81982;-55
2022/12/02 00:28:25;;;;;;;36.00;23.70;;;;;;;-1.57;80.04;101794.95;99492;1311;87159;-57
2022/12/02 00:30:55;;;;;;;35.20;23.10;;;;;;;-1.53;80.06;101792.09;99808;1306;78556;-57
2022/12/02 00:33:24;;;;;;;35.40;22.30;;;;;;;-1.48;80.07;101793.05;99828;1306;97133;-55
2022/12/02 00:35:55;;;;;;;33.70;20.70;;;;;;;-1.49;79.81;101788.91;99814;1300;94941;-56
2022/12/02 00:38:26;;;;;;;31.50;22.10;;;;;;;-1.52;79.87;101793.97;99988;1297;81857;-56
2022/12/02 00:40:57;;;;;;;35.50;22.30;;;;;;;-1.53;79.81;101793.00;99958;1300;88612;-56
2022/12/02 00:46:31;;;;;;;28.80;18.70;;;;;;;-1.63;79.67;101799.52;100064;1296;98296;-59
2022/12/02 00:49:02;;;;;;;37.10;22.60;;;;;;;-1.75;79.77;101796.38;100049;1297;94281;-56
2022/12/02 00:51:33;;;;;;;34.80;23.10;;;;;;;-1.75;79.61;101799.20;100066;1302;82721;-56
2022/12/02 00:54:03;;;;;;;41.70;22.60;;;;;;;-1.75;79.45;101802.21;100057;1293;89071;-54
2022/12/02 00:56:38;;;;;;;34.20;21.60;;;;;;;-1.76;79.76;101803.17;100057;1304;81121;-54
2022/12/02 00:59:10;;;;;;;38.00;22.40;;;;;;;-1.73;79.61;101804.23;100073;1295;98108;-56
2022/12/02 01:01:43;;;;;;;32.90;21.20;;;;;;;-1.69;79.55;101797.70;100045;1304;95163;-54
2022/12/02 01:04:15;;;;;;;31.00;19.80;;;;;;;-1.67;79.46;101799.04;100093;1297;82496;-57
2022/12/02 01:06:45;;;;;;;32.90;19.30;;;;;;;-1.67;79.58;101799.34;100085;1296;86609;-57
2022/12/02 01:09:18;;;;;;;31.60;18.50;;;;;;;-1.69;79.37;101801.91;100064;1304;79654;-57
2022/12/02 01:11:50;;;;;;;31.10;18.80;;;;;;;-1.74;79.26;101800.77;100081;1294;98358;-57
2022/12/02 01:14:26;;;;;;;25.70;16.30;;;;;;;-1.72;79.28;101798.20;100032;1301;93236;-56
2022/12/02 01:16:58;;;;;;;24.70;15.40;;;;;;;-1.79;79.32;101792.71;100075;1293;81700;-55
2022/12/02 01:19:28;;;;;;;29.90;19.40;;;;;;;-1.80;79.18;101787.78;100126;1297;86289;-56
2022/12/02 01:22:00;;;;;;;32.40;20.50;;;;;;;-1.80;79.26;101785.68;100100;1296;77582;-56
2022/12/02 01:24:35;;;;;;;33.90;21.20;;;;;;;-1.82;79.34;101779.64;100069;1297;98798;-56
2022/12/02 01:27:10;;;;;;;30.20;18.30;;;;;;;-1.90;79.19;101774.17;100050;1297;95300;-55
2022/12/02 01:29:40;;;;;;;;;;;;;;;-1.93;79.33;101774.35;100097;1287;83330;-58
2022/12/02 01:32:09;;;;;;;32.10;20.50;;;;;;;-1.94;79.37;101775.64;100050;1303;89592;-57
2022/12/02 01:34:42;;;;;;;34.50;20.40;;;;;;;-1.91;79.31;101773.73;100075;1295;82015;-56
2022/12/02 01:37:11;;;;;;;27.50;18.50;;;;;;;-1.92;79.22;101773.73;100047;1294;97900;-56
2022/12/02 01:39:48;;;;;;;34.40;18.40;;;;;;;-1.89;79.27;101774.65;100038;1303;93673;-55
2022/12/02 01:42:20;;;;;;;26.50;18.20;;;;;;;-1.83;79.39;101771.71;100099;1295;81828;-55
2022/12/02 01:44:52;;;;;;;27.40;18.20;;;;;;;-1.79;79.33;101772.21;100016;1297;86750;-58
2022/12/02 01:47:25;;;;;;;29.50;18.80;;;;;;;-1.81;79.07;101768.96;100047;1296;78267;-57
2022/12/02 01:49:55;;;;;;;26.20;17.70;;;;;;;-1.83;79.06;101767.67;100095;1296;98918;-55
2022/12/02 01:52:27;;;;;;;27.70;18.90;;;;;;;-1.83;79.10;101770.30;99998;1304;92748;-55
2022/12/02 01:55:07;;;;;;;26.10;16.60;;;;;;;-1.77;78.92;101770.91;100083;1294;82104;-58
2022/12/02 01:57:38;;;;;;;27.80;18.30;;;;;;;-1.87;78.84;101770.50;100023;1304;89604;-57
2022/12/02 02:00:16;;;;;;;27.50;18.00;;;;;;;-1.93;79.05;101767.65;100090;1300;79420;-57
2022/12/02 02:02:49;;;;;;;24.80;17.30;;;;;;;-1.96;78.87;101763.04;100096;1295;97242;-56
2022/12/02 02:05:28;;;;;;;26.70;19.90;;;;;;;-1.97;79.14;101763.06;100055;1299;92954;-56
2022/12/02 02:08:14;;;;;;;32.40;20.20;;;;;;;-1.96;79.01;101766.23;100131;1288;79205;-55
2022/12/02 02:10:49;;;;;;;32.60;21.00;;;;;;;-2.00;78.92;101764.11;100087;1303;87536;-58
2022/12/02 02:13:21;;;;;;;30.90;20.00;;;;;;;-1.97;78.97;101762.91;100024;1304;79561;-58
2022/12/02 02:15:54;;;;;;;30.80;19.20;;;;;;;-1.94;79.17;101770.00;100128;1297;96186;-58
2022/12/02 02:18:26;;;;;;;27.50;18.60;;;;;;;-1.91;79.20;101765.94;100102;1297;94733;-58
2022/12/02 02:21:00;;;;;;;23.60;16.50;;;;;;;-1.87;79.17;101764.17;100096;1295;82143;-57
2022/12/02 02:23:29;;;;;;;25.60;17.60;;;;;;;-1.90;79.10;101765.00;100314;1299;88887;-59
2022/12/02 02:26:03;;;;;;;26.40;18.10;;;;;;;-1.88;79.05;101768.46;100259;1291;78267;-58
2022/12/02 02:28:38;;;;;;;29.50;18.70;;;;;;;-1.87;78.92;101765.74;100295;1291;95346;-57
2022/12/02 02:31:14;;;;;;;29.30;19.20;;;;;;;-1.85;78.92;101764.77;100274;1298;94018;-57
2022/12/02 02:33:44;;;;;;;27.20;16.70;;;;;;;-1.87;78.98;101767.69;100295;1291;80939;-56
2022/12/02 02:36:17;;;;;;;30.50;19.40;;;;;;;-1.94;78.80;101766.08;100251;1284;89613;-56
2022/12/02 02:38:50;;;;;;;30.10;19.40;;;;;;;-1.95;79.00;101764.92;100316;1294;78728;-58
2022/12/02 02:41:23;;;;;;;27.70;18.90;;;;;;;-1.96;78.82;101761.45;100268;1294;97306;-58
2022/12/02 02:43:56;;;;;;;30.70;19.70;;;;;;;-2.01;78.90;101759.02;100301;1291;96069;-56
2022/12/02 02:46:28;;;;;;;30.10;20.30;;;;;;;-2.04;79.02;101762.04;100291;1294;81327;-55
2022/12/02 02:48:58;;;;;;;29.90;20.00;;;;;;;-2.05;78.99;101762.27;100246;1293;88030;-58
2022/12/02 02:51:27;;;;;;;34.30;19.60;;;;;;;-2.03;79.19;101758.27;100228;1296;81533;-58
2022/12/02 02:53:57;;;;;;;29.80;18.90;;;;;;;-2.03;78.98;101754.54;100288;1294;98495;-56
2022/12/02 02:56:32;;;;;;;29.20;17.60;;;;;;;-1.96;78.98;101753.81;100287;1292;95228;-55
2022/12/02 02:59:01;;;;;;;29.60;18.80;;;;;;;-1.93;79.02;101753.36;100329;1291;82550;-58
2022/12/02 03:01:36;;;;;;;25.10;16.80;;;;;;;-1.86;78.92;101757.92;100323;1294;86725;-58
2022/12/02 03:04:06;;;;;;;;;;;;;;;-1.89;78.90;101753.34;100279;1291;79341;-56
2022/12/02 03:06:38;;;;;;;26.30;16.50;;;;;;;-1.90;78.60;101749.65;100315;1291;97701;-56
2022/12/02 03:09:09;;;;;;;24.10;17.00;;;;;;;-1.93;78.69;101747.67;100278;1292;95510;-55
2022/12/02 03:11:44;;;;;;;27.20;16.60;;;;;;;-1.94;78.75;101744.23;100290;1284;80536;-55
2022/12/02 03:14:19;;;;;;;26.10;16.60;;;;;;;-1.96;78.64;101745.73;100184;1294;88627;-55
2022/12/02 03:16:51;;;;;;;25.30;17.40;;;;;;;-1.95;78.67;101747.61;100278;1292;77538;-55
2022/12/02 03:19:20;;;;;;;25.60;17.90;;;;;;;-1.96;78.80;101745.38;100288;1292;98083;-56
2022/12/02 03:21:52;;;;;;;26.30;16.90;;;;;;;-1.95;78.68;101745.70;100242;1300;94939;-56
2022/12/02 03:24:22;;;;;;;27.30;16.10;;;;;;;-2.00;78.51;101744.35;100239;1293;82924;-55
2022/12/02 03:26:54;;;;;;;26.20;17.50;;;;;;;-2.06;78.45;101740.40;100260;1293;88805;-56
2022/12/02 03:29:23;;;;;;;28.00;18.30;;;;;;;-2.09;78.47;101740.39;100267;1291;81313;-58
2022/12/02 03:31:56;;;;;;;27.80;16.30;;;;;;;-2.08;78.62;101736.98;100248;1293;97422;-59
2022/12/02 03:34:26;;;;;;;25.40;17.10;;;;;;;-2.09;78.51;101733.34;100294;1293;94002;-58
2022/12/02 03:37:00;;;;;;;22.60;15.70;;;;;;;-2.04;78.54;101738.89;100271;1300;82281;-58
2022/12/02 03:39:35;;;;;;;21.40;15.20;;;;;;;-2.03;78.43;101736.02;100283;1293;88567;-56
2022/12/02 03:42:08;;;;;;;26.40;17.20;;;;;;;-2.01;78.66;101734.18;100254;1283;78103;-55
2022/12/02 03:44:38;;;;;;;27.20;17.10;;;;;;;-1.98;78.55;101736.30;100294;1283;97642;-58
2022/12/02 03:47:10;;;;;;;27.10;16.60;;;;;;;-1.97;78.40;101734.84;100147;1294;94666;-58
2022/12/02 03:49:39;;;;;;;23.50;16.50;;;;;;;-1.99;78.68;101728.58;100307;1291;81773;-58
2022/12/02 03:52:08;;;;;;;26.90;16.40;;;;;;;-1.97;78.56;101730.24;100251;1294;89476;-58
2022/12/02 03:54:42;;;;;;;25.40;15.70;;;;;;;-1.97;78.56;101726.71;100280;1299;80611;-56
2022/12/02 03:57:13;;;;;;;23.70;15.80;;;;;;;-2.01;78.64;101729.94;100254;1300;97472;-56
2022/12/02 03:59:49;;;;;;;28.20;18.80;;;;;;;-2.05;78.70;101724.64;100286;1293;93765;-58
2022/12/02 04:02:22;;;;;;;26.70;17.10;;;;;;;-2.02;78.71;101724.34;100278;1294;82720;-58
2022/12/02 04:04:51;;;;;;;27.40;18.20;;;;;;;-2.02;78.45;101723.45;100282;1301;89218;-57
2022/12/02 04:07:23;;;;;;;28.10;17.60;;;;;;;-2.03;78.60;101721.53;100310;1290;81521;-58
2022/12/02 04:09:57;;;;;;;28.50;19.60;;;;;;;-1.99;78.58;101723.08;100298;1291;97144;-55
2022/12/02 04:12:32;;;;;;;28.30;17.90;;;;;;;-1.95;78.63;101722.56;100275;1297;92210;-55
2022/12/02 04:15:00;;;;;;;;;;;;;;;-1.89;78.60;101721.86;100339;1293;83192;-58
2022/12/02 04:17:30;;;;;;;31.70;19.60;;;;;;;-1.87;78.84;101715.44;100315;1291;88040;-57
2022/12/02 04:20:00;;;;;;;37.30;21.10;;;;;;;-1.88;78.63;101718.48;100292;1293;79836;-58
2022/12/02 04:22:32;;;;;;;34.40;19.70;;;;;;;-1.85;78.65;101717.09;100329;1292;98115;-58
2022/12/02 04:25:03;;;;;;;35.00;21.50;;;;;;;-1.86;78.53;101713.23;100295;1291;93636;-58
2022/12/02 04:27:36;;;;;;;41.20;21.70;;;;;;;-1.88;78.40;101710.56;100290;1297;83179;-58
2022/12/02 04:30:19;;;;;;;43.00;23.20;;;;;;;-1.91;78.70;101708.23;100282;1293;88873;-56
2022/12/02 04:32:48;;;;;;;42.10;21.10;;;;;;;-1.96;78.42;101706.88;100266;1293;78453;-56
2022/12/02 04:35:19;;;;;;;38.80;21.40;;;;;;;-2.01;78.66;101705.70;100264;1296;98990;-56
2022/12/02 04:37:54;;;;;;;34.60;21.00;;;;;;;-2.02;78.80;101703.50;100276;1283;95193;-58
2022/12/02 04:40:24;;;;;;;29.90;18.90;;;;;;;-2.01;78.71;101704.83;100313;1283;83204;-58
2022/12/02 04:42:57;;;;;;;33.90;22.00;;;;;;;-2.01;79.05;101710.67;100248;1293;88028;-58
2022/12/02 04:45:27;;;;;;;39.50;24.40;;;;;;;-1.99;79.20;101708.09;100326;1291;80732;-57
2022/12/02 04:47:59;;;;;;;44.20;26.20;;;;;;;-1.94;78.97;101710.17;100289;1291;98316;-57
2022/12/02 04:50:30;;;;;;;37.80;22.20;;;;;;;-1.93;79.04;101706.19;100298;1291;95262;-58
2022/12/02 04:53:01;;;;;;;33.80;21.80;;;;;;;-1.86;79.13;101707.98;100294;1293;81956;-56
2022/12/02 04:55:34;;;;;;;30.90;19.60;;;;;;;-1.81;79.16;101708.20;100278;1297;89195;-56
2022/12/02 04:58:05;;;;;;;33.90;19.40;;;;;;;-1.80;79.04;101711.19;100358;1294;79498;-57
2022/12/02 05:00:35;;;;;;;34.20;20.60;;;;;;;-1.77;78.96;101714.41;100362;1291;97725;-57
2022/12/02 05:03:10;;;;;;;28.80;18.20;;;;;;;-1.83;78.91;101710.11;100330;1293;95161;-57
2022/12/02 05:05:45;;;;;;;30.00;18.00;;;;;;;-1.88;78.77;101710.72;100341;1299;82303;-58
2022/12/02 05:08:17;;;;;;;32.60;18.90;;;;;;;-1.93;78.82;101712.75;100320;1299;87788;-56
2022/12/02 05:10:47;;;;;;;30.30;17.30;;;;;;;-1.98;78.76;101719.01;100325;1299;80817;-55
2022/12/02 05:13:16;;;;;;;33.00;19.10;;;;;;;-2.04;78.65;101720.54;100319;1293;96833;-57
2022/12/02 05:15:48;;;;;;;36.60;21.10;;;;;;;-2.10;78.95;101721.90;100272;1291;94870;-58
2022/12/02 05:18:18;;;;;;;31.90;19.90;;;;;;;-2.10;78.88;101722.09;100320;1296;82159;-57
2022/12/02 05:20:53;;;;;;;34.10;20.50;;;;;;;-2.09;79.06;101724.67;100261;1299;87949;-58
2022/12/02 05:23:25;;;;;;;31.80;20.50;;;;;;;-2.10;78.63;101725.08;100294;1299;81452;-57
2022/12/02 05:25:54;;;;;;;29.00;18.70;;;;;;;-2.05;78.83;101724.64;100300;1291;98855;-58
2022/12/02 05:28:26;;;;;;;28.50;17.90;;;;;;;-2.01;78.99;101723.91;100323;1293;95540;-58
2022/12/02 05:30:58;;;;;;;26.90;17.60;;;;;;;-1.93;78.59;101721.39;100304;1297;82303;-58
2022/12/02 05:33:30;;;;;;;29.50;18.90;;;;;;;-2.02;78.38;101722.36;100232;1290;86809;-58
2022/12/02 05:36:01;;;;;;;27.00;16.70;;;;;;;-2.06;78.49;101726.11;100325;1297;79168;-58
2022/12/02 05:38:32;;;;;;;26.20;15.30;;;;;;;-2.10;78.48;101723.66;100330;1292;97739;-58
2022/12/02 05:41:07;;;;;;;30.90;17.80;;;;;;;-2.11;78.44;101725.81;100280;1296;93409;-58
2022/12/02 05:43:45;;;;;;;27.90;17.70;;;;;;;-2.17;78.45;101727.35;100347;1294;81206;-56
2022/12/02 05:46:19;;;;;;;35.50;21.00;;;;;;;-2.23;78.62;101731.21;100365;1290;88014;-55
2022/12/02 05:48:55;;;;;;;30.20;18.50;;;;;;;-2.23;78.53;101736.87;100340;1294;81118;-56
2022/12/02 05:51:28;;;;;;;29.80;18.10;;;;;;;-2.24;78.43;101736.17;100215;1295;97971;-56
2022/12/02 05:53:57;;;;;;;42.30;23.50;;;;;;;-2.21;78.49;101736.73;100310;1297;94375;-58
2022/12/02 05:56:31;;;;;;;34.90;20.50;;;;;;;-2.15;78.67;101738.23;100282;1292;80833;-58
2022/12/02 05:59:08;;;;;;;31.90;20.00;;;;;;;-2.11;78.75;101738.55;100293;1296;88929;-56
2022/12/02 06:01:41;;;;;;;31.70;17.80;;;;;;;-2.10;78.49;101747.12;100302;1294;79590;-56
2022/12/02 06:04:18;;;;;;;29.70;17.00;;;;;;;-2.10;78.64;101748.02;100199;1294;98653;-56
2022/12/02 06:06:48;;;;;;;35.70;19.00;;;;;;;-2.06;78.55;101754.55;100201;1301;94418;-56
2022/12/02 06:09:20;;;;;;;28.90;16.70;;;;;;;-2.08;78.48;101755.01;100318;1297;81956;-55
2022/12/02 06:11:52;;;;;;;29.80;16.60;;;;;;;-2.12;78.51;101760.51;100292;1297;88986;-56
2022/12/02 06:14:24;;;;;;;26.60;16.70;;;;;;;-2.15;78.69;101755.48;100310;1291;78430;-55
2022/12/02 06:16:59;;;;;;;29.70;17.70;;;;;;;-2.20;78.64;101760.02;100298;1288;97953;-55
2022/12/02 06:19:31;;;;;;;27.30;17.30;;;;;;;-2.23;78.20;101758.54;100303;1293;95549;-56
2022/12/02 06:22:03;;;;;;;34.90;19.20;;;;;;;-2.30;78.36;101764.55;100304;1296;82787;-56
2022/12/02 06:24:37;;;;;;;32.00;19.50;;;;;;;-2.38;78.30;101763.70;100302;1299;88080;-58
2022/12/02 06:27:15;;;;;;;36.20;19.00;;;;;;;-2.38;78.37;101764.75;100298;1291;81550;-57
2022/12/02 06:29:50;;;;;;;29.60;19.10;;;;;;;-2.38;78.41;101766.16;100249;1292;99206;-58
2022/12/02 06:32:23;;;;;;;30.60;17.50;;;;;;;-2.34;78.25;101764.95;100273;1292;93974;-57
2022/12/02 06:34:53;;;;;;;29.10;18.10;;;;;;;-2.33;78.34;101767.36;100322;1292;81092;-58
2022/12/02 06:37:32;;;;;;;36.40;19.20;;;;;;;-2.32;78.10;101770.27;100286;1293;87957;-58
2022/12/02 06:40:20;;;;;;;28.20;17.10;;;;;;;-2.29;78.16;101769.27;100289;1295;78546;-57
2022/12/02 06:42:49;;;;;;;32.80;18.50;;;;;;;-2.29;78.16;101774.01;100283;1299;99708;-55
2022/12/02 06:45:28;;;;;;;28.50;17.30;;;;;;;-2.33;78.00;101774.60;100268;1292;94681;-55
2022/12/02 06:48:24;;;;;;;26.80;16.90;;;;;;;-2.36;77.89;101777.55;100284;1294;83719;-56
2022/12/02 06:50:56;;;;;;;27.80;15.90;;;;;;;-2.40;78.08;101777.02;100272;1293;88848;-57
2022/12/02 06:53:38;;;;;;;30.30;17.50;;;;;;;-2.44;77.89;101778.45;100286;1296;80047;-55
2022/12/02 06:56:20;;;;;;;25.20;17.10;;;;;;;-2.47;78.05;101784.39;100251;1292;98974;-56
2022/12/02 06:58:58;;;;;;;31.50;17.80;;;;;;;-2.49;78.16;101782.04;100272;1294;92934;-58
2022/12/02 07:01:41;;;;;;;30.70;18.90;;;;;;;-2.51;78.10;101781.27;100284;1295;82434;-57
2022/12/02 07:04:44;;;;;;;39.00;20.70;;;;;;;-2.46;78.26;101781.71;100311;1291;88227;-58
2022/12/02 07:07:27;;;;;;;32.00;19.50;;;;;;;-2.42;78.34;101782.97;100288;1284;81730;-58
2022/12/02 07:10:00;;;;;;;31.20;18.70;;;;;;;-2.36;78.28;101784.44;100315;1293;98410;-54
2022/12/02 07:12:37;;;;;;;26.80;16.30;;;;;;;-2.26;78.34;101784.46;100330;1292;93404;-55
2022/12/02 07:15:28;;;;;;;30.80;18.50;;;;;;;-2.22;78.56;101792.90;100326;1293;82821;-60
2022/12/02 07:18:01;;;;;;;25.90;17.00;;;;;;;-2.20;78.51;101790.53;100268;1293;88613;-58
2022/12/02 07:20:40;;;;;;;26.70;16.00;;;;;;;-2.19;78.28;101788.52;100265;1292;77752;-58
2022/12/02 07:23:19;;;;;;;28.70;16.00;;;;;;;-2.19;78.35;101788.54;100318;1300;96556;-56
2022/12/02 07:25:50;;;;;;;27.50;16.90;;;;;;;-2.18;78.59;101790.97;100242;1292;94638;-56
2022/12/02 07:28:34;;;;;;;27.80;16.40;;;;;;;-2.20;78.37;101789.30;100280;1293;81121;-57
2022/12/02 07:31:12;;;;;;;28.60;16.80;;;;;;;-2.26;78.40;101790.65;100245;1294;87855;-58
2022/12/02 07:33:43;;;;;;;27.80;16.70;;;;;;;-2.25;78.30;101788.66;100283;1295;77406;-54
2022/12/02 07:36:14;;;;;;;30.60;17.40;;;;;;;-2.31;78.44;101792.98;100189;1300;99293;-56
2022/12/02 07:38:46;;;;;;;30.70;17.10;;;;;;;-2.39;78.20;101796.55;100271;1294;94872;-55
2022/12/02 07:41:20;;;;;;;27.70;17.50;;;;;;;-2.40;78.49;101794.83;100248;1298;83025;-56
2022/12/02 07:43:49;;;;;;;33.30;18.00;;;;;;;-2.36;78.60;101795.36;100275;1300;89225;-58
2022/12/02 07:46:18;;;;;;;31.00;16.60;;;;;;;-2.35;78.57;101791.79;100281;1293;80827;-57
2022/12/02 07:48:50;;;;;;;27.40;15.90;;;;;;;-2.32;78.76;101790.23;100330;1291;98453;-58
2022/12/02 07:51:20;;;;;;;28.70;17.30;;;;;;;-2.28;78.60;101791.48;100251;1292;95583;-58
2022/12/02 07:53:55;;;;;;;29.40;17.80;;;;;;;-2.21;78.83;101796.76;100220;1299;82505;-58
2022/12/02 07:56:25;;;;;;;30.60;17.90;;;;;;;-2.20;78.46;101798.09;100193;1296;88862;-59
2022/12/02 07:58:56;;;;;;;30.70;18.30;;;;;;;-2.22;78.55;101798.55;100320;1293;79863;-57
2022/12/02 08:01:27;;;;;;;37.30;21.10;;;;;;;-2.21;78.67;101797.11;100310;1291;98096;-57
2022/12/02 08:03:59;;;;;;;41.10;22.20;;;;;;;-2.22;78.53;101798.02;100204;1291;95919;-55
2022/12/02 08:06:29;;;;;;;39.10;21.40;;;;;;;-2.26;78.43;101793.46;100270;1300;83348;-56
2022/12/02 08:09:02;;;;;;;42.30;21.40;;;;;;;-2.31;78.51;101792.15;100285;1284;87360;-55
2022/12/02 08:11:33;;;;;;;48.70;25.50;;;;;;;-2.41;78.48;101794.52;100257;1301;79523;-55
2022/12/02 08:14:03;;;;;;;36.40;21.70;;;;;;;-2.42;78.55;101789.98;100248;1293;99240;-58
2022/12/02 08:16:38;;;;;;;45.50;23.70;;;;;;;-2.37;78.57;101791.34;100239;1293;93980;-58
2022/12/02 08:19:08;;;;;;;44.90;22.20;;;;;;;-2.37;78.43;101791.89;100251;1290;80952;-59
2022/12/02 08:21:39;;;;;;;38.90;21.00;;;;;;;-2.40;78.84;101787.59;100192;1297;87919;-59
2022/12/02 08:24:11;;;;;;;30.80;17.90;;;;;;;-2.32;78.51;101784.39;99912;1292;500106;-57
2022/12/02 08:26:43;;;;;;;41.20;21.90;;;;;;;-2.28;78.49;101778.89;100282;1298;98616;-57
2022/12/02 08:29:16;;;;;;;31.10;19.80;;;;;;;-2.23;78.37;101780.64;100250;1293;94542;-58
2022/12/02 08:31:45;;;;;;;32.20;20.00;;;;;;;-2.21;78.33;101776.29;100295;1298;82157;-58
2022/12/02 08:34:16;;;;;;;41.80;23.00;;;;;;;-2.25;78.47;101775.40;100256;1293;89169;-56
2022/12/02 08:36:45;;;;;;;49.30;25.80;;;;;;;-2.32;78.40;101778.23;100271;1300;78214;-55
2022/12/02 08:39:14;;;;;;;38.80;20.60;;;;;;;-2.34;78.66;101775.88;100275;1298;97952;-58
2022/12/02 08:41:44;;;;;;;32.60;20.30;;;;;;;-2.39;78.56;101775.91;100261;1284;95475;-58
2022/12/02 08:44:17;;;;;;;37.40;20.80;;;;;;;-2.40;78.69;101777.73;100305;1294;83016;-58
2022/12/02 08:46:51;;;;;;;46.70;23.70;;;;;;;-2.43;78.83;101776.13;100241;1290;87589;-58
2022/12/02 08:49:22;;;;;;;37.20;21.20;;;;;;;-2.41;78.84;101777.80;100262;1297;80819;-56
2022/12/02 08:51:53;;;;;;;37.80;19.70;;;;;;;-2.37;78.84;101774.81;100286;1299;99286;-56
2022/12/02 08:54:23;;;;;;;42.80;24.00;;;;;;;-2.35;78.92;101777.33;100260;1294;93584;-56
2022/12/02 08:56:54;;;;;;;38.60;22.10;;;;;;;-2.27;79.03;101780.27;100283;1299;82389;-56
2022/12/02 08:59:31;;;;;;;37.50;20.40;;;;;;;-2.20;79.02;101774.83;100246;1299;88914;-56
2022/12/02 09:02:03;;;;;;;37.10;21.30;;;;;;;-2.17;78.93;101775.91;100264;1294;77262;-57
2022/12/02 09:04:36;;;;;;;35.10;19.40;;;;;;;-2.22;79.05;101776.16;100296;1299;98201;-58
2022/12/02 09:07:14;;;;;;;30.90;18.00;;;;;;;-2.22;78.66;101772.09;100222;1294;95549;-58
2022/12/02 09:09:45;;;;;;;36.50;22.20;;;;;;;-2.27;78.90;101780.80;100312;1299;83062;-55
2022/12/02 09:12:14;;;;;;;35.40;21.90;;;;;;;-2.30;78.78;101778.65;100291;1291;87712;-55
2022/12/02 09:14:46;;;;;;;34.90;20.50;;;;;;;-2.24;78.86;101782.09;100296;1298;78450;-58
2022/12/02 09:17:16;;;;;;;33.60;20.20;;;;;;;-2.27;78.86;101778.67;100327;1292;98180;-58
2022/12/02 09:19:47;;;;;;;38.90;22.10;;;;;;;-2.33;78.91;101783.23;100304;1300;95801;-55
2022/12/02 09:22:18;;;;;;;42.70;24.60;;;;;;;-2.36;78.96;101775.95;100245;1293;82668;-55
2022/12/02 09:24:49;;;;;;;41.10;24.70;;;;;;;-2.43;79.15;101781.23;100296;1292;88504;-57
2022/12/02 09:27:21;;;;;;;37.80;22.30;;;;;;;-2.47;79.06;101782.29;100251;1292;79406;-57
2022/12/02 09:29:50;;;;;;;40.80;23.90;;;;;;;-2.45;78.95;101783.45;100328;1300;99287;-58
2022/12/02 09:32:25;;;;;;;35.80;21.20;;;;;;;-2.44;79.04;101781.27;100305;1291;95251;-58
2022/12/02 09:34:58;;;;;;;35.60;21.80;;;;;;;-2.45;79.09;101774.60;100286;1300;82249;-55
2022/12/02 09:37:31;;;;;;;32.60;19.20;;;;;;;-2.40;78.76;101781.42;100294;1292;89638;-55
2022/12/02 09:40:02;;;;;;;27.40;17.40;;;;;;;-2.42;78.93;101775.37;100301;1300;79104;-55
2022/12/02 09:42:34;;;;;;;32.50;18.90;;;;;;;-2.40;78.77;101771.04;100264;1296;97745;-55
2022/12/02 09:45:08;;;;;;;36.30;20.50;;;;;;;-2.31;78.80;101773.59;100270;1294;94654;-57
2022/12/02 09:47:44;;;;;;;36.10;18.90;;;;;;;-2.27;78.84;101771.81;100323;1299;82081;-56
2022/12/02 09:50:17;;;;;;;38.00;19.90;;;;;;;-2.39;78.63;101766.73;100266;1296;87860;-55
2022/12/02 09:52:49;;;;;;;47.30;23.70;;;;;;;-2.40;78.59;101774.02;100300;1300;79338;-57
2022/12/02 09:55:26;;;;;;;40.40;22.70;;;;;;;-2.47;78.64;101780.04;100292;1298;99372;-56
2022/12/02 09:57:56;;;;;;;38.20;21.20;;;;;;;-2.55;78.56;101783.02;100195;1295;94267;-56
2022/12/02 10:00:28;;;;;;;47.60;24.60;;;;;;;-2.57;78.63;101778.37;100291;1298;81507;-56
2022/12/02 10:03:01;;;;;;;37.30;20.50;;;;;;;-2.57;78.52;101781.03;100293;1293;87640;-56
2022/12/02 10:05:33;;;;;;;52.70;26.60;;;;;;;-2.60;78.78;101773.76;100315;1290;80873;-59
2022/12/02 10:08:03;;;;;;;36.50;21.30;;;;;;;-2.57;78.47;101774.85;100335;1289;98353;-56
2022/12/02 10:10:40;;;;;;;40.10;22.00;;;;;;;-2.54;78.72;101774.18;100274;1293;94697;-56
2022/12/02 10:13:17;;;;;;;56.10;27.90;;;;;;;-2.48;78.82;101776.15;100305;1298;80364;-57
2022/12/02 10:15:47;;;;;;;38.70;21.40;;;;;;;-2.38;78.82;101778.02;100279;1296;86421;-57
2022/12/02 10:18:22;;;;;;;33.50;20.60;;;;;;;-2.33;78.55;101780.39;100259;1300;78746;-58
2022/12/02 10:20:57;;;;;;;55.60;26.10;;;;;;;-2.31;78.52;101773.45;100256;1291;98883;-59
2022/12/02 10:23:31;;;;;;;40.20;22.50;;;;;;;-2.27;78.51;101774.45;100261;1300;94339;-59
2022/12/02 10:26:17;;;;;;;51.80;27.30;;;;;;;-2.26;78.49;101769.66;100322;1301;81086;-59
2022/12/02 10:29:06;;;;;;;57.60;29.30;;;;;;;-2.22;78.46;101771.92;100290;1300;85859;-58
2022/12/02 10:31:35;;;;;;;58.20;29.20;;;;;;;-2.31;78.57;101772.01;100166;1298;81734;-58
2022/12/02 10:34:12;;;;;;;60.60;29.50;;;;;;;-2.38;78.24;101776.77;100303;1300;98212;-57
2022/12/02 10:36:47;;;;;;;52.00;27.40;;;;;;;-2.52;78.50;101775.48;100273;1300;95099;-56
2022/12/02 10:39:29;;;;;;;61.00;29.50;;;;;;;-2.62;78.53;101778.27;100350;1293;80577;-57
2022/12/02 10:42:20;;;;;;;62.20;31.70;;;;;;;-2.63;78.68;101770.73;100332;1294;87227;-57
2022/12/02 10:45:22;;;;;;;61.00;30.40;;;;;;;-2.60;78.50;101767.44;100284;1291;80396;-56
2022/12/02 10:48:13;;;;;;;47.30;23.40;;;;;;;-2.57;78.95;101769.35;100261;1297;99179;-56
2022/12/02 10:50:43;;;;;;;42.60;23.90;;;;;;;-2.65;78.75;101765.17;100252;1300;92742;-55
2022/12/02 10:53:18;;;;;;;36.60;22.10;;;;;;;-2.57;78.61;101760.77;100272;1294;81060;-58
2022/12/02 10:55:52;;;;;;;44.40;25.80;;;;;;;-2.47;78.69;101764.45;100254;1300;88723;-58
2022/12/02 10:58:30;;;;;;;45.70;26.40;;;;;;;-2.45;78.90;101762.09;100290;1291;78714;-58
2022/12/02 11:01:01;;;;;;;44.40;24.90;;;;;;;-2.43;78.62;101765.38;100254;1300;97430;-58
2022/12/02 11:03:30;;;;;;;58.50;29.10;;;;;;;-2.45;78.63;101766.15;100280;1298;93943;-57
2022/12/02 11:06:05;;;;;;;45.10;24.60;;;;;;;-2.49;78.67;101767.40;100291;1294;82165;-57
2022/12/02 11:08:33;;;;;;;76.40;34.00;;;;;;;-2.60;78.57;101766.91;100301;1299;88976;-56
2022/12/02 11:11:17;;;;;;;66.00;30.70;;;;;;;-2.61;78.67;101765.35;100292;1293;80697;-56
2022/12/02 11:14:00;;;;;;;52.50;28.70;;;;;;;-2.60;78.57;101763.73;100345;1300;98263;-56
2022/12/02 11:17:11;;;;;;;56.60;29.40;;;;;;;-2.59;78.57;101764.17;100288;1293;92919;-56
2022/12/02 11:20:15;;;;;;;60.20;30.00;;;;;;;-2.70;78.66;101764.55;100272;1294;83163;-56
2022/12/02 11:23:25;;;;;;;61.60;30.20;;;;;;;-2.73;78.74;101761.16;100246;1300;86943;-57
2022/12/02 11:26:12;;;;;;;47.40;25.10;;;;;;;-2.76;78.46;101765.91;100289;1297;82259;-56
2022/12/02 11:29:17;;;;;;;57.50;29.70;;;;;;;-2.71;78.63;101763.88;100299;1300;97398;-58
2022/12/02 11:32:16;;;;;;;46.60;25.40;;;;;;;-2.66;78.90;101756.91;100233;1301;94974;-58
2022/12/02 11:34:52;;;;;;;41.80;23.50;;;;;;;-2.57;78.59;101754.95;100307;1300;83148;-58
2022/12/02 11:37:45;;;;;;;39.00;23.30;;;;;;;-2.51;78.47;101755.52;100289;1298;87309;-58
2022/12/02 11:41:03;;;;;;;46.10;24.70;;;;;;;-2.45;78.34;101757.68;100315;1290;78583;-56